createdAt,value
2017-09-15T00:01:04.328Z,1.50
2017-09-15T00:03:32.395Z,1.27
2017-09-15T00:06:00.471Z,2.00
2017-09-15T00:08:28.559Z,1.50
2017-09-15T00:10:56.627Z,1.90
2017-09-15T00:13:24.714Z,1.57
2017-09-15T00:15:52.788Z,1.70
2017-09-15T00:18:21.631Z,2.00
2017-09-15T00:20:49.779Z,2.13
2017-09-15T00:23:17.863Z,1.60
2017-09-15T00:25:45.943Z,1.73
2017-09-15T00:28:14.015Z,1.70
2017-09-15T00:30:42.095Z,1.47
2017-09-15T00:33:10.171Z,1.80
2017-09-15T00:35:38.265Z,1.47
2017-09-15T00:38:06.350Z,2.17
2017-09-15T00:40:35.187Z,1.83
2017-09-15T00:43:03.262Z,1.40
2017-09-15T00:45:31.347Z,1.60
2017-09-15T00:47:59.434Z,1.60
2017-09-15T00:50:27.518Z,1.50
2017-09-15T00:52:56.359Z,1.37
2017-09-15T00:55:24.430Z,1.40
2017-09-15T00:57:52.510Z,1.50
2017-09-15T01:00:20.600Z,1.40
2017-09-15T01:02:48.680Z,1.57
2017-09-15T01:05:17.526Z,1.80
2017-09-15T01:07:45.612Z,1.80
2017-09-15T01:10:13.708Z,1.40
2017-09-15T01:12:42.553Z,1.57
2017-09-15T01:15:10.631Z,2.00
2017-09-15T01:17:38.715Z,1.70
2017-09-15T01:20:06.801Z,1.50
2017-09-15T01:22:34.874Z,1.77
2017-09-15T01:25:02.952Z,1.50
2017-09-15T01:27:31.801Z,1.30
2017-09-15T01:29:59.871Z,1.50
2017-09-15T01:32:27.944Z,1.60
2017-09-15T01:34:56.028Z,1.83
2017-09-15T01:37:24.108Z,1.80
2017-09-15T01:39:52.178Z,1.67
2017-09-15T01:42:20.255Z,1.70
2017-09-15T01:44:49.099Z,1.47
2017-09-15T01:47:17.184Z,1.50
2017-09-15T01:49:45.267Z,1.40
2017-09-15T01:52:13.343Z,1.40
2017-09-15T01:54:41.412Z,1.40
2017-09-15T01:57:09.487Z,1.40
2017-09-15T01:59:37.563Z,1.60
2017-09-15T02:02:06.413Z,1.40
2017-09-15T02:04:34.503Z,1.57
2017-09-15T02:07:02.570Z,2.40
2017-09-15T02:09:30.672Z,1.90
2017-09-15T02:11:59.506Z,1.47
2017-09-15T02:14:27.609Z,1.60
2017-09-15T02:16:55.678Z,1.97
2017-09-15T02:19:23.767Z,1.50
2017-09-15T02:21:52.816Z,1.43
2017-09-15T02:24:20.888Z,1.30
2017-09-15T02:26:48.968Z,1.60
2017-09-15T02:29:17.055Z,1.70
2017-09-15T02:31:45.149Z,1.40
2017-09-15T02:34:14.006Z,1.37
2017-09-15T02:36:42.102Z,1.63
2017-09-15T02:39:10.946Z,1.70
2017-09-15T02:41:39.027Z,1.73
2017-09-15T02:44:07.112Z,1.60
2017-09-15T02:46:35.184Z,1.77
2017-09-15T02:49:03.450Z,2.13
2017-09-15T02:51:31.532Z,1.40
2017-09-15T02:53:59.611Z,1.33
2017-09-15T02:56:27.756Z,1.40
2017-09-15T02:58:55.827Z,1.43
2017-09-15T03:01:23.926Z,1.63
2017-09-15T03:03:52.896Z,1.50
2017-09-15T03:06:20.971Z,1.73
2017-09-15T03:08:49.043Z,1.90
2017-09-15T03:11:17.121Z,1.60
2017-09-15T03:13:45.178Z,1.60
2017-09-15T03:16:13.275Z,1.87
2017-09-15T03:18:42.128Z,1.60
2017-09-15T03:21:10.210Z,1.70
2017-09-15T03:23:38.280Z,1.67
2017-09-15T03:26:06.366Z,1.67
2017-09-15T03:28:35.202Z,1.50
2017-09-15T03:31:03.274Z,1.50
2017-09-15T03:33:31.347Z,1.50
2017-09-15T03:35:59.431Z,1.60
2017-09-15T03:38:27.495Z,1.40
2017-09-15T03:40:55.584Z,1.83
2017-09-15T03:43:23.659Z,1.70
2017-09-15T03:45:51.731Z,2.07
2017-09-15T03:48:19.820Z,1.77
2017-09-15T03:50:48.663Z,2.00
2017-09-15T03:53:16.751Z,1.60
2017-09-15T03:55:44.816Z,1.80
2017-09-15T03:58:12.907Z,1.67
2017-09-15T04:00:40.993Z,2.20
2017-09-15T04:03:09.823Z,2.47
2017-09-15T04:05:37.908Z,2.20
2017-09-15T04:08:05.989Z,2.10
2017-09-15T04:10:34.071Z,2.00
2017-09-15T04:13:02.147Z,1.97
2017-09-15T04:15:30.991Z,2.00
2017-09-15T04:17:59.071Z,2.33
2017-09-15T04:20:27.142Z,2.57
2017-09-15T04:22:55.233Z,2.00
2017-09-15T04:25:23.302Z,1.77
2017-09-15T04:27:51.389Z,1.90
2017-09-15T04:30:20.237Z,1.70
2017-09-15T04:32:48.319Z,2.40
2017-09-15T04:35:16.604Z,2.03
2017-09-15T04:37:44.686Z,2.50
2017-09-15T04:40:12.777Z,1.90
2017-09-15T04:42:41.611Z,2.60
2017-09-15T04:45:09.696Z,1.77
2017-09-15T04:47:37.784Z,2.43
2017-09-15T04:50:05.872Z,2.20
2017-09-15T04:52:34.718Z,2.00
2017-09-15T04:55:02.816Z,2.20
2017-09-15T04:57:30.956Z,1.97
2017-09-15T05:00:00.121Z,2.20
2017-09-15T05:02:28.201Z,2.40
2017-09-15T05:04:56.321Z,1.80
2017-09-15T05:07:24.463Z,2.23
2017-09-15T05:09:52.531Z,1.80
2017-09-15T05:12:20.612Z,1.90
2017-09-15T05:14:48.695Z,1.93
2017-09-15T05:17:16.776Z,2.37
2017-09-15T05:19:45.635Z,1.67
2017-09-15T05:22:13.725Z,2.13
2017-09-15T05:24:41.791Z,2.07
2017-09-15T05:27:09.876Z,2.30
2017-09-15T05:29:38.801Z,1.90
2017-09-15T05:32:06.899Z,1.90
2017-09-15T05:34:35.099Z,2.07
2017-09-15T05:37:03.272Z,2.23
2017-09-15T05:39:32.128Z,2.07
2017-09-15T05:42:00.303Z,1.90
2017-09-15T05:44:28.503Z,1.87
2017-09-15T05:46:56.597Z,2.13
2017-09-15T05:49:24.667Z,4.20
2017-09-15T05:51:52.730Z,2.47
2017-09-15T05:54:21.583Z,2.10
2017-09-15T05:56:49.668Z,2.13
2017-09-15T05:59:17.759Z,1.90
2017-09-15T06:01:46.592Z,2.30
2017-09-15T06:04:14.663Z,1.70
2017-09-15T06:06:42.755Z,1.80
2017-09-15T06:09:10.829Z,1.90
2017-09-15T06:11:38.903Z,1.97
2017-09-15T06:14:06.975Z,2.37
2017-09-15T06:16:35.052Z,1.90
2017-09-15T06:19:03.115Z,2.10
2017-09-15T06:21:31.187Z,1.70
2017-09-15T06:23:59.263Z,1.70
2017-09-15T06:26:28.108Z,2.17
2017-09-15T06:28:56.189Z,1.73
2017-09-15T06:31:24.263Z,1.90
2017-09-15T06:33:52.335Z,1.70
2017-09-15T06:36:20.427Z,2.27
2017-09-15T06:38:48.500Z,1.67
2017-09-15T06:41:16.584Z,1.97
2017-09-15T06:43:45.426Z,1.87
2017-09-15T06:46:13.497Z,2.00
2017-09-15T06:48:41.602Z,2.23
2017-09-15T06:51:09.664Z,2.00
2017-09-15T06:53:37.743Z,1.80
2017-09-15T06:56:06.593Z,2.00
2017-09-15T06:58:34.671Z,2.03
2017-09-15T07:01:02.845Z,2.00
2017-09-15T07:03:30.919Z,2.30
2017-09-15T07:05:58.999Z,1.70
2017-09-15T07:08:27.076Z,1.77
2017-09-15T07:10:55.152Z,2.27
2017-09-15T07:13:23.223Z,1.90
2017-09-15T07:15:52.078Z,1.90
2017-09-15T07:18:20.159Z,1.70
2017-09-15T07:20:48.249Z,1.93
2017-09-15T07:23:16.311Z,1.50
2017-09-15T07:25:45.265Z,1.67
2017-09-15T07:28:13.343Z,1.80
2017-09-15T07:30:41.418Z,1.57
2017-09-15T07:33:09.499Z,2.00
2017-09-15T07:35:37.572Z,1.63
2017-09-15T07:38:05.660Z,1.90
2017-09-15T07:40:33.758Z,1.67
2017-09-15T07:43:01.846Z,2.03
2017-09-15T07:45:30.164Z,2.10
2017-09-15T07:47:58.440Z,1.60
2017-09-15T07:50:26.510Z,1.80
2017-09-15T07:52:54.607Z,1.77
2017-09-15T07:55:23.447Z,1.80
2017-09-15T07:57:51.523Z,2.00
2017-09-15T08:00:19.612Z,2.10
2017-09-15T08:02:47.676Z,1.50
2017-09-15T08:05:15.755Z,1.70
2017-09-15T08:07:43.833Z,2.03
2017-09-15T08:10:11.899Z,1.53
2017-09-15T08:12:39.980Z,2.33
2017-09-15T08:15:08.823Z,1.80
2017-09-15T08:17:36.892Z,1.63
2017-09-15T08:20:04.967Z,1.60
2017-09-15T08:22:33.048Z,1.60
2017-09-15T08:25:01.139Z,1.60
2017-09-15T08:27:29.274Z,1.93
2017-09-15T08:29:57.474Z,1.30
2017-09-15T08:32:25.550Z,1.63
2017-09-15T08:34:53.679Z,1.70
2017-09-15T08:37:21.761Z,1.30
2017-09-15T08:39:49.896Z,1.40
2017-09-15T08:42:18.044Z,1.37
2017-09-15T08:44:46.110Z,1.60
2017-09-15T08:47:14.368Z,1.40
2017-09-15T08:49:43.953Z,1.20
2017-09-15T08:52:12.148Z,1.43
2017-09-15T08:54:40.424Z,2.10
2017-09-15T08:57:08.515Z,1.83
2017-09-15T08:59:36.609Z,1.33
2017-09-15T09:02:04.755Z,1.97
2017-09-15T09:04:32.826Z,1.80
2017-09-15T09:07:00.903Z,1.90
2017-09-15T09:09:29.038Z,1.87
2017-09-15T09:11:57.175Z,1.70
2017-09-15T09:14:25.248Z,1.40
2017-09-15T09:16:53.331Z,1.40
2017-09-15T09:19:21.411Z,1.20
2017-09-15T09:21:49.495Z,1.50
2017-09-15T09:24:17.586Z,1.20
2017-09-15T09:26:45.666Z,1.20
2017-09-15T09:29:14.511Z,1.27
2017-09-15T09:31:42.597Z,1.00
2017-09-15T09:34:10.674Z,1.40
2017-09-15T09:36:38.771Z,1.53
2017-09-15T09:39:07.618Z,1.30
2017-09-15T09:41:35.720Z,1.60
2017-09-15T09:44:03.815Z,1.40
2017-09-15T09:46:31.924Z,1.60
2017-09-15T09:48:59.994Z,1.20
2017-09-15T09:51:28.179Z,1.30
2017-09-15T09:53:56.259Z,1.30
2017-09-15T09:56:24.348Z,1.23
2017-09-15T09:58:52.608Z,1.10
2017-09-15T10:01:20.683Z,1.20
2017-09-15T10:03:48.770Z,1.10
2017-09-15T10:06:16.865Z,0.90
2017-09-15T10:08:44.987Z,1.10
2017-09-15T10:11:13.062Z,1.10
2017-09-15T10:13:41.141Z,1.13
2017-09-15T10:16:09.227Z,1.03
2017-09-15T10:18:38.067Z,1.20
2017-09-15T10:21:06.255Z,1.20
2017-09-15T10:23:34.339Z,1.30
2017-09-15T10:26:03.931Z,1.50
2017-09-15T10:28:32.011Z,2.27
2017-09-15T10:31:00.105Z,1.37
2017-09-15T10:33:28.951Z,2.03
2017-09-15T10:35:57.236Z,1.40
2017-09-15T10:38:26.232Z,1.27
2017-09-15T10:40:54.387Z,1.23
2017-09-15T10:43:22.470Z,1.40
2017-09-15T10:45:50.550Z,1.40
2017-09-15T10:48:18.648Z,1.30
2017-09-15T10:50:47.499Z,1.40
2017-09-15T10:53:15.574Z,1.30
2017-09-15T10:55:43.756Z,1.40
2017-09-15T11:11:39.655Z,1.30
2017-09-15T11:14:08.734Z,1.10
2017-09-15T11:16:36.787Z,1.50
2017-09-15T11:19:04.867Z,1.60
2017-09-15T11:21:32.961Z,1.20
2017-09-15T11:24:01.041Z,1.20
2017-09-15T11:26:29.884Z,1.40
2017-09-15T11:28:57.959Z,1.50
2017-09-15T11:31:26.053Z,1.60
2017-09-15T11:33:54.128Z,1.30
2017-09-15T11:36:22.215Z,1.20
2017-09-15T11:38:51.066Z,1.90
2017-09-15T11:41:19.148Z,1.50
2017-09-15T11:43:47.231Z,1.30
2017-09-15T11:46:15.316Z,1.20
2017-09-15T11:48:44.387Z,1.70
2017-09-15T11:51:12.457Z,1.33
2017-09-15T11:53:40.703Z,1.50
2017-09-15T11:56:08.776Z,1.50
2017-09-15T11:58:36.971Z,1.13
2017-09-15T12:01:05.124Z,1.50
2017-09-15T12:03:33.201Z,1.20
2017-09-15T12:06:01.279Z,1.40
2017-09-15T12:08:29.358Z,1.67
2017-09-15T12:10:57.518Z,1.67
2017-09-15T12:13:25.603Z,1.40
2017-09-15T12:15:53.688Z,1.20
2017-09-15T12:18:22.523Z,1.23
2017-09-15T12:20:50.601Z,1.50
2017-09-15T12:23:19.094Z,1.43
2017-09-15T12:25:47.167Z,1.27
2017-09-15T12:28:15.251Z,1.43
2017-09-15T12:30:43.322Z,1.53
2017-09-15T12:33:11.408Z,1.30
2017-09-15T12:35:39.487Z,1.30
2017-09-15T12:38:07.599Z,1.30
2017-09-15T12:40:35.680Z,1.20
2017-09-15T12:43:03.761Z,1.90
2017-09-15T12:45:31.939Z,1.20
2017-09-15T12:48:01.551Z,1.37
2017-09-15T12:50:29.727Z,1.50
2017-09-15T12:52:57.988Z,1.10
2017-09-15T12:55:26.072Z,1.50
2017-09-15T12:57:54.146Z,1.50
2017-09-15T13:00:22.403Z,1.00
2017-09-15T13:02:50.482Z,1.40
2017-09-15T13:05:18.758Z,1.40
2017-09-15T13:07:46.844Z,1.30
2017-09-15T13:10:15.681Z,1.27
2017-09-15T13:12:43.755Z,1.50
2017-09-15T13:15:11.836Z,1.53
2017-09-15T13:17:39.919Z,1.90
2017-09-15T13:20:07.991Z,1.33
2017-09-15T13:22:36.077Z,1.40
2017-09-15T13:25:04.921Z,1.70
2017-09-15T13:27:33.099Z,1.30
2017-09-15T13:30:01.189Z,1.40
2017-09-15T13:32:29.266Z,1.10
2017-09-15T13:34:57.431Z,1.10
2017-09-15T13:37:25.521Z,1.43
2017-09-15T13:39:53.588Z,1.80
2017-09-15T13:42:21.661Z,1.80
2017-09-15T13:44:49.742Z,1.50
2017-09-15T13:47:18.590Z,1.23
2017-09-15T13:49:46.675Z,1.47
2017-09-15T13:52:14.765Z,1.30
2017-09-15T13:54:43.619Z,1.20
2017-09-15T13:57:11.704Z,1.07
2017-09-15T13:59:39.783Z,1.23
2017-09-15T14:02:07.871Z,1.10
2017-09-15T14:04:36.722Z,0.93
2017-09-15T14:07:04.807Z,1.10
2017-09-15T14:09:32.894Z,1.03
2017-09-15T14:12:01.743Z,1.10
2017-09-15T14:14:29.829Z,1.20
2017-09-15T14:16:57.910Z,1.07
2017-09-15T14:19:26.197Z,1.00
2017-09-15T14:21:55.040Z,1.30
2017-09-15T14:24:23.128Z,1.30
2017-09-15T14:26:51.215Z,1.30
2017-09-15T14:29:19.304Z,1.10
2017-09-15T14:31:47.395Z,1.30
2017-09-15T14:34:15.499Z,1.20
2017-09-15T14:36:43.579Z,1.10
2017-09-15T14:39:11.651Z,1.17
2017-09-15T14:41:39.734Z,1.30
2017-09-15T14:44:07.817Z,1.23
2017-09-15T14:46:36.676Z,1.37
2017-09-15T14:49:04.751Z,1.40
2017-09-15T14:51:32.833Z,1.30
2017-09-15T14:54:00.927Z,1.50
2017-09-15T14:56:29.788Z,1.40
2017-09-15T14:58:57.954Z,1.10
2017-09-15T15:01:26.060Z,1.10
2017-09-15T15:03:54.166Z,1.10
2017-09-15T15:06:22.247Z,1.50
2017-09-15T15:08:50.444Z,1.87
2017-09-15T15:11:18.521Z,2.00
2017-09-15T15:13:48.122Z,1.43
2017-09-15T15:16:16.197Z,1.50
2017-09-15T15:18:44.438Z,1.37
2017-09-15T15:21:12.527Z,1.30
2017-09-15T15:23:40.612Z,1.17
2017-09-15T15:26:08.708Z,1.13
2017-09-15T15:28:36.787Z,1.30
2017-09-15T15:31:04.865Z,1.33
2017-09-15T15:33:32.960Z,1.30
2017-09-15T15:36:01.066Z,1.47
2017-09-15T15:38:29.907Z,1.20
2017-09-15T15:40:57.990Z,1.20
2017-09-15T15:43:26.289Z,1.20
2017-09-15T15:45:54.379Z,1.30
2017-09-15T15:48:22.459Z,1.10
2017-09-15T15:50:50.659Z,1.20
2017-09-15T15:53:18.745Z,1.30
2017-09-15T15:55:46.863Z,1.20
2017-09-15T15:58:15.133Z,1.30
2017-09-15T16:00:43.231Z,1.20
2017-09-15T16:03:11.324Z,1.37
2017-09-15T16:05:39.403Z,1.57
2017-09-15T16:08:07.521Z,1.20
2017-09-15T16:10:36.370Z,1.20
2017-09-15T16:13:04.464Z,1.80
2017-09-15T16:15:32.635Z,1.90
2017-09-15T16:18:00.785Z,1.50
2017-09-15T16:20:28.971Z,1.20
2017-09-15T16:22:57.063Z,1.10
2017-09-15T16:25:25.907Z,1.10
2017-09-15T16:27:53.998Z,1.00
2017-09-15T16:30:22.072Z,1.90
2017-09-15T16:32:50.151Z,3.10
2017-09-15T16:35:18.235Z,5.80
2017-09-15T16:37:46.607Z,3.50
2017-09-15T16:40:20.351Z,2.87
2017-09-15T16:42:54.152Z,3.93
2017-09-15T16:45:27.838Z,6.60
2017-09-15T16:48:02.531Z,11.40
2017-09-15T16:50:30.622Z,6.40
2017-09-15T16:52:58.723Z,6.70
2017-09-15T16:55:26.816Z,1.80
2017-09-15T16:57:54.903Z,1.50
2017-09-15T17:00:22.991Z,1.17
2017-09-15T17:02:51.162Z,1.20
2017-09-15T17:05:19.236Z,1.50
2017-09-15T17:07:48.087Z,1.43
2017-09-15T17:10:16.172Z,1.50
2017-09-15T17:12:44.244Z,1.90
2017-09-15T17:15:12.343Z,1.53
2017-09-15T17:17:41.221Z,1.57
2017-09-15T17:20:09.303Z,1.73
2017-09-15T17:22:38.156Z,12.73
2017-09-15T17:25:06.240Z,7.70
2017-09-15T17:27:34.336Z,3.70
2017-09-15T17:30:02.411Z,2.57
2017-09-15T17:32:30.535Z,2.37
2017-09-15T17:34:58.613Z,2.27
2017-09-15T17:37:26.709Z,1.90
2017-09-15T17:39:55.556Z,2.53
2017-09-15T17:42:23.644Z,3.50
2017-09-15T17:44:51.730Z,6.03
2017-09-15T17:47:19.812Z,5.70
2017-09-15T17:49:48.651Z,6.70
2017-09-15T17:52:16.739Z,6.87
2017-09-15T17:54:44.820Z,5.53
2017-09-15T17:57:12.905Z,3.33
2017-09-15T17:59:41.000Z,1.67
2017-09-15T18:02:09.083Z,1.57
2017-09-15T18:04:37.172Z,1.60
2017-09-15T18:07:05.251Z,1.63
2017-09-15T18:09:33.339Z,1.53
2017-09-15T18:12:01.427Z,1.97
2017-09-15T18:14:30.276Z,1.73
2017-09-15T18:16:58.351Z,1.63
2017-09-15T18:19:26.439Z,1.73
2017-09-15T18:21:54.507Z,1.50
2017-09-15T18:24:22.595Z,2.00
2017-09-15T18:26:51.445Z,2.27
2017-09-15T18:29:19.534Z,1.90
2017-09-15T18:31:47.615Z,1.93
2017-09-15T18:34:15.705Z,1.70
2017-09-15T18:36:44.543Z,1.77
2017-09-15T18:39:12.628Z,2.00
2017-09-15T18:41:40.723Z,2.37
2017-09-15T18:44:08.801Z,1.90
2017-09-15T18:46:37.669Z,2.30
2017-09-15T18:49:05.743Z,2.20
2017-09-15T18:51:33.871Z,2.40
2017-09-15T18:54:01.946Z,2.03
2017-09-15T18:56:30.031Z,1.70
2017-09-15T18:58:58.111Z,1.77
2017-09-15T19:01:26.221Z,1.53
2017-09-15T19:03:55.079Z,1.60
2017-09-15T19:06:23.162Z,1.90
2017-09-15T19:08:51.232Z,2.20
2017-09-15T19:11:20.139Z,2.03
2017-09-15T19:13:48.211Z,1.80
2017-09-15T19:16:17.056Z,1.70
2017-09-15T19:18:45.161Z,1.63
2017-09-15T19:21:14.046Z,1.20
2017-09-15T19:23:42.456Z,1.13
2017-09-15T19:26:10.555Z,1.47
2017-09-15T19:28:38.683Z,1.30
2017-09-15T19:31:07.517Z,1.20
2017-09-15T19:33:35.599Z,1.30
2017-09-15T19:36:03.684Z,1.60
2017-09-15T19:38:31.764Z,1.50
2017-09-15T19:41:00.645Z,2.13
2017-09-15T19:43:28.728Z,1.83
2017-09-15T19:45:57.563Z,1.80
2017-09-15T19:48:25.663Z,1.93
2017-09-15T19:50:53.743Z,2.10
2017-09-15T19:53:21.815Z,2.30
2017-09-15T19:55:49.895Z,1.70
2017-09-15T19:58:18.754Z,1.37
2017-09-15T20:00:46.834Z,1.20
2017-09-15T20:03:14.953Z,1.30
2017-09-15T20:05:43.073Z,1.10
2017-09-15T20:08:11.145Z,1.20
2017-09-15T20:10:39.272Z,1.37
2017-09-15T20:13:07.358Z,1.60
2017-09-15T20:15:35.485Z,1.40
2017-09-15T20:18:04.339Z,1.03
2017-09-15T20:20:32.487Z,1.10
2017-09-15T20:23:00.556Z,1.00
2017-09-15T20:25:28.627Z,1.10
2017-09-15T20:27:56.720Z,1.23
2017-09-15T20:30:24.851Z,1.10
2017-09-15T20:32:52.989Z,1.10
2017-09-15T20:35:21.840Z,1.00
2017-09-15T20:37:49.949Z,1.37
2017-09-15T20:40:18.064Z,1.40
2017-09-15T20:42:46.171Z,1.60
2017-09-15T20:45:14.281Z,1.10
2017-09-15T20:47:44.045Z,1.23
2017-09-15T20:50:12.234Z,1.27
2017-09-15T20:52:40.312Z,1.20
2017-09-15T20:55:09.193Z,1.00
2017-09-15T20:57:37.268Z,1.20
2017-09-15T21:00:05.343Z,1.30
2017-09-15T21:02:34.186Z,1.83
2017-09-15T21:05:02.491Z,1.33
2017-09-15T21:07:30.568Z,1.73
2017-09-15T21:09:58.659Z,2.40
2017-09-15T21:12:26.739Z,1.50
2017-09-15T21:14:55.052Z,1.90
2017-09-15T21:17:23.974Z,1.50
2017-09-15T21:19:52.938Z,1.63
2017-09-15T21:22:21.297Z,2.00
2017-09-15T21:24:49.459Z,2.70
2017-09-15T21:27:18.147Z,2.00
2017-09-15T21:29:46.239Z,1.93
2017-09-15T21:32:14.825Z,2.27
2017-09-15T21:34:44.009Z,1.87
2017-09-15T21:37:12.091Z,2.17
2017-09-15T21:39:40.160Z,2.20
2017-09-15T21:42:08.256Z,1.90
2017-09-15T21:44:36.341Z,1.97
2017-09-15T21:47:05.191Z,1.80
2017-09-15T21:49:33.279Z,1.93
2017-09-15T21:52:01.356Z,2.10
2017-09-15T21:54:30.218Z,2.00
2017-09-15T21:56:58.299Z,1.87
2017-09-15T21:59:26.388Z,1.87
2017-09-15T22:01:54.475Z,2.00
2017-09-15T22:04:28.247Z,1.60
2017-09-15T22:06:56.324Z,1.80
2017-09-15T22:09:24.402Z,4.83
2017-09-15T22:11:53.245Z,3.00
2017-09-15T22:14:21.324Z,5.20
2017-09-15T22:16:49.395Z,4.50
2017-09-15T22:19:17.478Z,2.40
2017-09-15T22:21:45.565Z,5.87
2017-09-15T22:24:13.661Z,3.57
2017-09-15T22:26:42.496Z,2.10
2017-09-15T22:29:10.567Z,2.60
2017-09-15T22:31:38.652Z,4.70
2017-09-15T22:34:06.727Z,2.30
2017-09-15T22:36:34.815Z,1.70
2017-09-15T22:39:03.659Z,1.80
2017-09-15T22:41:31.740Z,1.70
2017-09-15T22:43:59.827Z,1.70
2017-09-15T22:46:27.925Z,2.17
2017-09-15T22:48:56.785Z,3.70
2017-09-15T22:51:24.866Z,2.20
2017-09-15T22:53:53.718Z,1.80
2017-09-15T22:56:21.807Z,2.67
2017-09-15T22:58:49.883Z,1.80
2017-09-15T23:01:17.983Z,2.33
2017-09-15T23:03:46.068Z,3.57
2017-09-15T23:06:14.139Z,3.10
2017-09-15T23:08:42.225Z,1.80
2017-09-15T23:11:10.307Z,2.37
2017-09-15T23:13:38.411Z,2.40
2017-09-15T23:16:07.400Z,1.73
2017-09-15T23:18:35.479Z,1.70
2017-09-15T23:21:03.549Z,3.00
2017-09-15T23:23:31.634Z,4.93
2017-09-15T23:25:59.699Z,4.27
2017-09-15T23:28:27.779Z,2.70
2017-09-15T23:30:56.038Z,2.27
2017-09-15T23:33:24.299Z,2.07
2017-09-15T23:35:52.378Z,2.37
2017-09-15T23:38:20.476Z,2.60
2017-09-15T23:40:48.544Z,1.90
2017-09-15T23:43:16.632Z,2.50
2017-09-15T23:45:44.697Z,2.10
2017-09-15T23:48:12.779Z,1.90
2017-09-15T23:50:40.861Z,2.00
2017-09-15T23:53:08.931Z,2.30
2017-09-15T23:55:37.020Z,2.60
2017-09-15T23:58:05.091Z,2.00
